Time;durP1;ratioP1;P1;durP2;ratioP2;P2;SDS_P1;SDS_P2;PMS_P1;PMS_P2;Temp;Humidity;BMP_temperature;BMP_pressure;BME280_temperature;BME280_humidity;BME280_pressure;Samples;Min_cycle;Max_cycle;Signal;HPM_P1;HPM_P2
2024/03/27 00:01:30;;;;;;;15.63;9.70;;;7.30;99.90;;;;;;4807083;29;20218;-90
2024/03/27 00:04:00;;;;;;;12.87;7.97;;;7.20;99.90;;;;;;4807114;29;20205;-89
2024/03/27 00:06:25;;;;;;;11.40;8.43;;;7.20;99.90;;;;;;4822150;29;20592;-89
2024/03/27 00:08:51;;;;;;;11.67;8.23;;;7.00;99.90;;;;;;4815023;29;20192;-89
2024/03/27 00:11:17;;;;;;;12.27;8.53;;;7.10;99.90;;;;;;4800615;29;20187;-89
2024/03/27 00:13:46;;;;;;;12.73;8.87;;;7.00;99.90;;;;;;4807004;29;20248;-90
2024/03/27 00:16:12;;;;;;;10.17;8.20;;;7.10;99.90;;;;;;4807071;29;20234;-89
2024/03/27 00:18:37;;;;;;;12.20;8.70;;;7.00;99.90;;;;;;4822199;29;20186;-90
2024/03/27 00:21:03;;;;;;;15.17;9.03;;;7.00;99.90;;;;;;4808047;29;20225;-89
2024/03/27 00:23:30;;;;;;;13.13;8.67;;;7.00;99.90;;;;;;4807186;29;20182;-89
2024/03/27 00:25:57;;;;;;;13.83;9.43;;;7.00;99.90;;;;;;4807003;29;20187;-90
2024/03/27 00:28:22;;;;;;;13.83;9.63;;;7.00;99.90;;;;;;4822135;29;20194;-90
2024/03/27 00:30:48;;;;;;;12.80;9.40;;;7.00;99.90;;;;;;4822137;29;20186;-90
2024/03/27 00:33:14;;;;;;;14.40;9.50;;;6.90;99.90;;;;;;4806906;29;20182;-89
2024/03/27 00:35:59;;;;;;;11.93;8.73;;;6.90;99.90;;;;;;4807028;29;20187;-90
2024/03/27 00:38:25;;;;;;;11.63;8.23;;;6.90;99.90;;;;;;4807146;29;20204;-90
2024/03/27 00:40:52;;;;;;;12.27;8.27;;;6.80;99.90;;;;;;4827557;29;20246;-89
2024/03/27 00:43:18;;;;;;;12.03;8.13;;;6.70;99.90;;;;;;4821955;29;20187;-89
2024/03/27 00:45:50;;;;;;;13.63;8.40;;;6.60;99.90;;;;;;4822060;29;20190;-89
2024/03/27 00:48:16;;;;;;;15.57;9.47;;;6.60;99.90;;;;;;4822121;29;20193;-89
2024/03/27 00:50:41;;;;;;;14.20;9.07;;;6.50;99.90;;;;;;4807796;29;20179;-90
2024/03/27 00:53:07;;;;;;;12.87;9.03;;;6.50;99.90;;;;;;4807887;29;20179;-90
2024/03/27 00:55:34;;;;;;;12.00;8.60;;;6.50;99.90;;;;;;4821942;29;20578;-89
2024/03/27 00:57:59;;;;;;;11.10;8.63;;;6.40;99.90;;;;;;4821985;29;20206;-89
2024/03/27 01:00:25;;;;;;;13.57;9.47;;;6.40;99.90;;;;;;4821968;29;20619;-89
2024/03/27 01:02:51;;;;;;;12.70;9.47;;;6.40;99.90;;;;;;4821927;29;20186;-89
2024/03/27 01:05:18;;;;;;;14.90;9.27;;;6.40;99.90;;;;;;4821864;29;20274;-89
2024/03/27 01:07:44;;;;;;;11.87;8.77;;;6.40;99.90;;;;;;4821810;29;20191;-89
2024/03/27 01:10:12;;;;;;;15.50;8.80;;;6.40;99.90;;;;;;4821669;29;20593;-90
2024/03/27 01:12:39;;;;;;;11.77;8.30;;;6.40;99.90;;;;;;4821977;29;20202;-90
2024/03/27 01:15:17;;;;;;;12.27;8.50;;;6.40;99.90;;;;;;4825220;29;20211;-89
2024/03/27 01:17:42;;;;;;;14.10;8.60;;;6.40;99.90;;;;;;4825402;29;20186;-89
2024/03/27 01:20:09;;;;;;;12.40;8.80;;;6.40;99.90;;;;;;4825111;29;20276;-90
2024/03/27 01:22:34;;;;;;;12.53;8.43;;;6.30;99.90;;;;;;4825164;29;20596;-89
2024/03/27 01:25:17;;;;;;;12.77;8.60;;;6.30;99.90;;;;;;4825116;29;20222;-90
2024/03/27 01:27:43;;;;;;;13.10;9.10;;;6.20;99.90;;;;;;4824829;29;20256;-89
2024/03/27 01:30:09;;;;;;;12.60;8.87;;;6.20;99.90;;;;;;4824882;29;20637;-89
2024/03/27 01:32:35;;;;;;;15.07;9.63;;;6.20;99.90;;;;;;4824943;29;20226;-90
2024/03/27 01:35:06;;;;;;;15.57;9.57;;;6.20;99.90;;;;;;4824934;29;20187;-90
2024/03/27 01:37:32;;;;;;;15.83;9.83;;;6.20;99.90;;;;;;4824724;29;20212;-90
2024/03/27 01:39:57;;;;;;;17.53;10.37;;;6.20;99.90;;;;;;4812847;29;20234;-90
2024/03/27 01:42:23;;;;;;;21.70;11.17;;;6.20;99.90;;;;;;4827444;29;20229;-90
2024/03/27 01:44:51;;;;;;;12.93;8.87;;;6.10;99.90;;;;;;4827681;29;20189;-90
2024/03/27 01:47:16;;;;;;;12.57;8.50;;;6.10;99.90;;;;;;4827718;29;20614;-91
2024/03/27 01:49:43;;;;;;;14.97;9.77;;;6.10;99.90;;;;;;4827728;29;20238;-90
2024/03/27 01:52:11;;;;;;;15.37;10.07;;;6.00;99.90;;;;;;4827597;29;20622;-90
2024/03/27 01:54:40;;;;;;;11.33;8.37;;;5.90;99.90;;;;;;4812531;29;20189;-91
2024/03/27 01:57:06;;;;;;;15.73;8.60;;;5.90;99.90;;;;;;4827587;29;20683;-90
2024/03/27 01:59:35;;;;;;;11.90;8.90;;;5.80;99.90;;;;;;4827384;29;20182;-90
2024/03/27 02:02:02;;;;;;;14.63;9.17;;;5.80;99.90;;;;;;4827309;29;20225;-90
2024/03/27 02:04:31;;;;;;;13.40;8.83;;;5.80;99.90;;;;;;4827344;29;20186;-90
2024/03/27 02:06:57;;;;;;;13.30;8.30;;;5.90;99.90;;;;;;4827670;29;20184;-91
2024/03/27 02:09:25;;;;;;;13.77;9.47;;;5.90;99.90;;;;;;4827405;29;20186;-91
2024/03/27 02:11:51;;;;;;;14.67;9.03;;;5.90;99.90;;;;;;4827198;29;20212;-90
2024/03/27 02:14:16;;;;;;;14.40;9.47;;;5.80;99.90;;;;;;4827156;29;20681;-91
2024/03/27 02:16:42;;;;;;;16.87;9.63;;;5.70;99.90;;;;;;4827243;29;20184;-91
2024/03/27 02:19:08;;;;;;;14.80;9.10;;;5.60;99.90;;;;;;4827473;29;20221;-91
2024/03/27 02:21:36;;;;;;;16.30;9.47;;;5.60;99.90;;;;;;4826975;29;20213;-90
2024/03/27 02:24:29;;;;;;;13.93;8.97;;;5.50;99.90;;;;;;4826341;29;20186;-91
2024/03/27 02:26:56;;;;;;;12.40;9.23;;;5.60;99.90;;;;;;4826709;29;20197;-90
2024/03/27 02:29:21;;;;;;;15.27;9.33;;;5.60;99.90;;;;;;4827011;29;20182;-90
2024/03/27 02:31:47;;;;;;;13.10;9.33;;;5.50;99.90;;;;;;4827167;29;20194;-90
2024/03/27 02:34:12;;;;;;;13.53;9.47;;;5.50;99.90;;;;;;4828057;29;20178;-90
2024/03/27 02:36:46;;;;;;;13.33;10.03;;;5.40;99.90;;;;;;4826842;29;20194;-91
2024/03/27 02:39:12;;;;;;;11.77;8.73;;;5.40;99.90;;;;;;4826841;29;20197;-89
2024/03/27 02:41:38;;;;;;;13.03;8.87;;;5.30;99.90;;;;;;4826304;29;20249;-90
2024/03/27 02:44:03;;;;;;;13.13;9.73;;;5.30;99.90;;;;;;4826795;29;20197;-91
2024/03/27 02:46:35;;;;;;;12.93;9.50;;;5.30;99.90;;;;;;4826839;29;20281;-91
2024/03/27 02:49:01;;;;;;;13.87;9.80;;;5.30;99.90;;;;;;4826741;29;20186;-89
2024/03/27 02:51:26;;;;;;;17.93;10.97;;;5.30;99.90;;;;;;4826639;29;20197;-91
2024/03/27 02:53:52;;;;;;;13.20;9.27;;;5.30;99.90;;;;;;4826539;29;20190;-91
2024/03/27 02:56:22;;;;;;;13.67;9.40;;;5.30;99.90;;;;;;4826524;29;20245;-91
2024/03/27 02:58:48;;;;;;;13.97;9.50;;;5.30;99.90;;;;;;4826194;29;20532;-91
2024/03/27 03:01:14;;;;;;;14.57;9.77;;;5.30;99.90;;;;;;4826417;29;20217;-90
2024/03/27 03:03:40;;;;;;;12.77;9.57;;;5.30;99.90;;;;;;4826305;29;20221;-90
2024/03/27 03:06:07;;;;;;;12.87;9.07;;;5.30;99.90;;;;;;4827410;29;20266;-91
2024/03/27 03:08:33;;;;;;;14.30;9.43;;;5.30;99.90;;;;;;4826412;29;20182;-91
2024/03/27 03:10:58;;;;;;;12.00;9.37;;;5.30;99.90;;;;;;4826213;29;20204;-92
2024/03/27 03:13:24;;;;;;;14.17;9.03;;;5.30;99.90;;;;;;4826411;29;20189;-91
2024/03/27 03:15:50;;;;;;;13.03;9.53;;;5.30;99.90;;;;;;5247818;23;20611;-88
2024/03/27 03:18:15;;;;;;;13.57;9.37;;;5.30;99.90;;;;;;4847602;29;20616;-89
2024/03/27 03:20:41;;;;;;;14.30;9.40;;;5.30;99.90;;;;;;4863528;29;20224;-89
2024/03/27 03:23:07;;;;;;;15.00;9.67;;;5.30;99.90;;;;;;4864093;29;20362;-88
2024/03/27 03:25:33;;;;;;;14.90;9.60;;;5.30;99.90;;;;;;4847235;29;20541;-88
2024/03/27 03:27:59;;;;;;;14.67;9.10;;;5.20;99.90;;;;;;4847322;29;20274;-89
2024/03/27 03:30:25;;;;;;;18.23;9.87;;;5.30;99.90;;;;;;4847470;29;20193;-90
2024/03/27 03:32:50;;;;;;;13.10;9.43;;;5.20;99.90;;;;;;4847266;29;20285;-91
2024/03/27 03:35:16;;;;;;;14.07;10.00;;;5.20;99.90;;;;;;4847107;29;20218;-90
2024/03/27 03:37:46;;;;;;;13.47;8.90;;;5.20;99.90;;;;;;4847231;29;20193;-91
2024/03/27 03:40:12;;;;;;;16.57;9.47;;;5.20;99.90;;;;;;4847140;29;20180;-90
2024/03/27 03:42:38;;;;;;;15.13;9.70;;;5.20;99.90;;;;;;4847110;29;20203;-89
2024/03/27 03:45:05;;;;;;;14.37;9.13;;;5.10;99.90;;;;;;4846976;29;20185;-88
2024/03/27 03:47:32;;;;;;;13.03;9.67;;;5.10;99.90;;;;;;4846622;29;20733;-89
2024/03/27 03:49:57;;;;;;;14.63;9.83;;;5.10;99.90;;;;;;4863699;29;20276;-89
2024/03/27 03:52:23;;;;;;;13.03;9.37;;;5.10;99.90;;;;;;4846967;29;20333;-88
2024/03/27 03:54:48;;;;;;;15.90;9.40;;;5.00;99.90;;;;;;4863447;29;20208;-89
2024/03/27 03:57:17;;;;;;;13.93;9.53;;;5.00;99.90;;;;;;4847013;29;20191;-88
2024/03/27 03:59:43;;;;;;;13.40;9.47;;;5.00;99.90;;;;;;4863547;29;20255;-89
2024/03/27 04:02:09;;;;;;;12.43;9.57;;;5.00;99.90;;;;;;4846691;29;20784;-89
2024/03/27 04:04:35;;;;;;;13.33;9.60;;;5.00;99.90;;;;;;4863524;29;20177;-89
2024/03/27 04:07:01;;;;;;;12.40;8.80;;;5.00;99.90;;;;;;4847022;29;20211;-89
2024/03/27 04:09:28;;;;;;;14.93;9.53;;;5.00;99.90;;;;;;4846954;29;20625;-88
2024/03/27 04:11:53;;;;;;;14.93;9.80;;;5.00;99.90;;;;;;4846849;29;20189;-88
2024/03/27 04:14:19;;;;;;;15.00;10.43;;;5.00;99.90;;;;;;4846778;29;20189;-89
2024/03/27 04:16:45;;;;;;;13.43;9.67;;;5.00;99.90;;;;;;4846209;29;20260;-89
2024/03/27 04:19:24;;;;;;;15.20;9.57;;;5.00;99.90;;;;;;4846700;29;20212;-90
2024/03/27 04:21:49;;;;;;;14.17;10.13;;;5.00;99.90;;;;;;4862923;29;20220;-89
2024/03/27 04:24:16;;;;;;;13.83;9.93;;;4.90;99.90;;;;;;4846071;29;20535;-88
2024/03/27 04:26:42;;;;;;;14.90;9.60;;;5.00;99.90;;;;;;4846471;29;20280;-89
2024/03/27 04:29:30;;;;;;;14.27;9.63;;;5.00;99.90;;;;;;4846502;29;20188;-89
2024/03/27 04:31:55;;;;;;;13.57;9.63;;;5.00;99.90;;;;;;4846493;29;20180;-89
2024/03/27 04:34:21;;;;;;;13.40;9.10;;;5.00;99.90;;;;;;4846524;29;20180;-89
2024/03/27 04:36:47;;;;;;;14.30;9.23;;;5.00;99.90;;;;;;4846452;29;20612;-89
2024/03/27 04:39:22;;;;;;;16.50;10.07;;;4.90;99.90;;;;;;4846444;29;20211;-89
2024/03/27 04:41:48;;;;;;;14.27;9.67;;;4.90;99.90;;;;;;4846419;29;20260;-90
2024/03/27 04:44:14;;;;;;;16.80;9.63;;;4.90;99.90;;;;;;4846374;29;20613;-89
2024/03/27 04:46:40;;;;;;;14.03;9.30;;;4.90;99.90;;;;;;4846136;29;20199;-89
2024/03/27 04:49:10;;;;;;;16.23;10.47;;;4.80;99.90;;;;;;4849163;29;20187;-89
2024/03/27 04:51:36;;;;;;;13.13;9.63;;;4.80;99.90;;;;;;4850378;29;20613;-88
2024/03/27 04:54:02;;;;;;;13.03;9.67;;;4.80;99.90;;;;;;4850237;29;20326;-89
2024/03/27 04:56:28;;;;;;;12.77;9.13;;;4.80;99.90;;;;;;4849938;29;20199;-91
2024/03/27 04:59:02;;;;;;;14.60;10.13;;;4.80;99.90;;;;;;4849987;29;20181;-90
2024/03/27 05:01:27;;;;;;;22.83;10.73;;;4.80;99.90;;;;;;4849800;29;20216;-91
2024/03/27 05:03:53;;;;;;;15.10;9.90;;;4.80;99.90;;;;;;4850102;29;20196;-89
2024/03/27 05:06:19;;;;;;;13.97;10.17;;;4.80;99.90;;;;;;4849955;29;20188;-89
2024/03/27 05:08:44;;;;;;;13.00;9.60;;;4.80;99.90;;;;;;4849898;29;20188;-90
2024/03/27 05:11:12;;;;;;;15.23;9.83;;;4.70;99.90;;;;;;4849962;29;20183;-90
2024/03/27 05:13:38;;;;;;;13.57;9.43;;;4.80;99.90;;;;;;4849786;29;20296;-90
2024/03/27 05:16:04;;;;;;;20.00;9.67;;;4.70;99.90;;;;;;4849594;29;20244;-91
2024/03/27 05:18:32;;;;;;;14.17;9.40;;;4.70;99.90;;;;;;4849719;29;20196;-90
2024/03/27 05:20:57;;;;;;;11.67;8.77;;;4.70;99.90;;;;;;4849649;29;20223;-90
2024/03/27 05:23:23;;;;;;;12.27;9.23;;;4.70;99.90;;;;;;4849660;29;20177;-89
2024/03/27 05:25:49;;;;;;;14.40;9.67;;;4.70;99.90;;;;;;4849719;29;20597;-91
2024/03/27 05:28:43;;;;;;;12.30;8.73;;;4.80;99.90;;;;;;4849650;29;20191;-90
2024/03/27 05:31:09;;;;;;;16.43;9.90;;;4.80;99.90;;;;;;4865744;29;20172;-90
2024/03/27 05:33:35;;;;;;;12.80;9.13;;;4.80;99.90;;;;;;4865942;29;20184;-90
2024/03/27 05:36:00;;;;;;;15.63;9.97;;;4.80;99.90;;;;;;4849413;29;20185;-90
2024/03/27 05:38:38;;;;;;;13.87;9.93;;;4.80;99.90;;;;;;4866092;29;20184;-90
2024/03/27 05:41:04;;;;;;;15.00;10.10;;;4.80;99.90;;;;;;4848804;29;20550;-91
2024/03/27 05:43:30;;;;;;;14.10;8.47;;;4.80;99.90;;;;;;4847205;29;20192;-91
2024/03/27 05:45:56;;;;;;;13.73;9.57;;;4.80;99.90;;;;;;4830622;29;20617;-91
2024/03/27 05:48:27;;;;;;;14.93;9.07;;;4.80;99.90;;;;;;4830847;29;20189;-91
2024/03/27 05:50:54;;;;;;;13.27;9.27;;;4.80;99.90;;;;;;4847218;29;20177;-91
2024/03/27 05:53:20;;;;;;;14.03;10.00;;;4.80;99.90;;;;;;4830758;29;20189;-91
2024/03/27 05:55:59;;;;;;;15.13;9.27;;;4.80;99.90;;;;;;4847170;29;20282;-90
2024/03/27 05:58:27;;;;;;;15.17;9.77;;;4.80;99.90;;;;;;4830314;29;20625;-90
2024/03/27 06:00:55;;;;;;;14.23;9.20;;;4.90;99.90;;;;;;4847008;29;20205;-90
2024/03/27 06:03:21;;;;;;;14.90;9.27;;;4.80;99.90;;;;;;4846775;29;20185;-90
2024/03/27 06:05:46;;;;;;;14.47;9.33;;;4.80;99.90;;;;;;4830405;29;20197;-90
2024/03/27 06:08:12;;;;;;;13.93;9.00;;;4.90;99.90;;;;;;4830535;29;20613;-90
2024/03/27 06:10:38;;;;;;;12.53;9.03;;;5.00;99.90;;;;;;4830485;29;20185;-90
2024/03/27 06:13:04;;;;;;;13.63;9.27;;;5.10;99.90;;;;;;4830352;29;20185;-90
2024/03/27 06:15:31;;;;;;;16.67;9.60;;;5.10;99.90;;;;;;4829765;29;20185;-89
2024/03/27 06:17:56;;;;;;;15.60;9.07;;;5.10;99.90;;;;;;4828283;29;20204;-90
2024/03/27 06:20:23;;;;;;;15.77;9.77;;;5.00;99.90;;;;;;4828412;29;20189;-90
2024/03/27 06:22:50;;;;;;;12.90;9.53;;;5.00;99.90;;;;;;4829900;29;20185;-90
2024/03/27 06:25:16;;;;;;;13.03;9.10;;;5.10;99.90;;;;;;4830305;29;20245;-90
2024/03/27 06:27:42;;;;;;;13.63;9.47;;;5.10;99.90;;;;;;4830267;29;20189;-88
2024/03/27 06:30:15;;;;;;;13.90;9.23;;;5.10;99.90;;;;;;4846616;29;20268;-89
2024/03/27 06:32:42;;;;;;;13.77;9.43;;;5.20;99.90;;;;;;4829851;29;20188;-89
2024/03/27 06:35:08;;;;;;;13.70;8.50;;;5.20;99.90;;;;;;4846480;29;20196;-90
2024/03/27 06:37:34;;;;;;;15.23;9.47;;;5.20;99.90;;;;;;4829973;29;20185;-90
2024/03/27 06:40:09;;;;;;;13.87;8.93;;;5.20;99.90;;;;;;4829871;29;20193;-89
2024/03/27 06:42:39;;;;;;;14.03;9.60;;;5.20;99.90;;;;;;4841665;29;20305;-89
2024/03/27 06:45:06;;;;;;;11.97;8.90;;;5.30;99.90;;;;;;4848255;29;20185;-89
2024/03/27 06:47:32;;;;;;;14.47;9.10;;;5.30;99.90;;;;;;4847941;29;20196;-89
2024/03/27 06:49:59;;;;;;;10.93;8.27;;;5.30;99.90;;;;;;4848010;29;20200;-90
2024/03/27 06:52:25;;;;;;;14.60;9.33;;;5.30;99.90;;;;;;4847937;29;20617;-90
2024/03/27 06:54:51;;;;;;;13.07;9.50;;;5.40;99.90;;;;;;4848084;29;20184;-90
2024/03/27 06:57:20;;;;;;;13.20;8.90;;;5.40;99.90;;;;;;4847786;29;20513;-90
2024/03/27 06:59:48;;;;;;;13.97;9.73;;;5.40;99.90;;;;;;4848117;29;20189;-90
2024/03/27 07:02:13;;;;;;;11.43;8.30;;;5.40;99.90;;;;;;4847582;29;20223;-88
2024/03/27 07:04:39;;;;;;;13.60;9.03;;;5.50;99.90;;;;;;4847895;29;20188;-89
2024/03/27 07:07:05;;;;;;;12.67;9.13;;;5.60;99.90;;;;;;4848074;29;20276;-89
2024/03/27 07:09:37;;;;;;;11.60;8.60;;;5.70;99.90;;;;;;4848006;29;20271;-87
2024/03/27 07:12:03;;;;;;;11.80;9.17;;;5.80;99.90;;;;;;4847194;29;20193;-88
2024/03/27 07:14:29;;;;;;;13.70;9.23;;;5.90;99.90;;;;;;4864030;29;20276;-86
2024/03/27 07:16:54;;;;;;;13.80;8.53;;;6.00;99.90;;;;;;4847012;29;20272;-87
2024/03/27 07:19:48;;;;;;;11.37;8.00;;;6.10;99.90;;;;;;4847181;29;20208;-88
2024/03/27 07:22:15;;;;;;;13.33;8.97;;;6.20;99.90;;;;;;4847595;29;20219;-87
2024/03/27 07:24:41;;;;;;;13.50;9.17;;;6.20;99.90;;;;;;4847489;29;20196;-89
2024/03/27 07:27:06;;;;;;;12.40;9.03;;;6.30;99.90;;;;;;4847402;29;20185;-88
2024/03/27 07:29:45;;;;;;;13.90;9.17;;;6.40;99.90;;;;;;4847469;29;20271;-88
2024/03/27 07:32:10;;;;;;;12.93;9.07;;;6.60;99.90;;;;;;4847157;29;20180;-88
2024/03/27 07:34:36;;;;;;;16.30;9.73;;;6.70;99.90;;;;;;4847420;29;20184;-89
2024/03/27 07:37:02;;;;;;;12.63;8.83;;;6.80;99.90;;;;;;4863837;29;20205;-87
2024/03/27 07:39:29;;;;;;;17.83;9.37;;;7.00;99.90;;;;;;4847334;29;20595;-87
2024/03/27 07:41:54;;;;;;;11.63;9.07;;;7.20;99.90;;;;;;4847182;29;20224;-86
2024/03/27 07:44:21;;;;;;;11.37;8.43;;;7.30;99.90;;;;;;4847168;29;20506;-87
2024/03/27 07:46:47;;;;;;;13.13;9.47;;;7.40;99.90;;;;;;4846985;29;20193;-87
2024/03/27 07:49:12;;;;;;;14.93;10.00;;;7.50;99.90;;;;;;4863619;29;20237;-87
2024/03/27 07:51:59;;;;;;;16.07;9.07;;;7.50;99.90;;;;;;4847151;29;20237;-87
2024/03/27 07:54:24;;;;;;;16.40;9.40;;;7.60;99.90;;;;;;4847060;29;20180;-86
2024/03/27 07:57:07;;;;;;;13.53;9.53;;;7.70;99.90;;;;;;4846882;29;20631;-88
2024/03/27 07:59:35;;;;;;;15.27;9.23;;;7.80;99.90;;;;;;4847046;29;20256;-86
2024/03/27 08:02:00;;;;;;;13.83;9.90;;;7.80;99.90;;;;;;4846643;29;20655;-86
2024/03/27 08:04:26;;;;;;;13.40;9.30;;;8.00;99.90;;;;;;4863405;29;20209;-87
2024/03/27 08:06:51;;;;;;;13.60;9.63;;;8.10;99.90;;;;;;4846735;29;20188;-86
2024/03/27 08:09:18;;;;;;;11.67;9.03;;;8.20;99.90;;;;;;4846755;29;20281;-87
2024/03/27 08:11:54;;;;;;;13.83;9.27;;;8.30;99.90;;;;;;4846826;29;20611;-85
2024/03/27 08:14:20;;;;;;;14.80;9.67;;;8.40;99.90;;;;;;4846739;29;20206;-87
2024/03/27 08:16:49;;;;;;;12.83;8.73;;;8.60;99.90;;;;;;4842897;29;20241;-87
2024/03/27 08:19:15;;;;;;;12.90;9.63;;;8.70;99.90;;;;;;4844711;29;20201;-87
2024/03/27 08:21:43;;;;;;;14.18;9.50;;;8.80;99.90;;;;;;4844483;29;20276;-87
2024/03/27 08:24:09;;;;;;;13.68;9.10;;;8.90;99.90;;;;;;4843594;29;20277;-86
2024/03/27 08:26:34;;;;;;;14.93;8.35;;;9.00;99.90;;;;;;4843182;29;20213;-87
2024/03/27 08:29:00;;;;;;;19.27;9.27;;;9.10;99.90;;;;;;4843110;29;20694;-87
2024/03/27 08:31:26;;;;;;;13.70;8.80;;;9.20;99.90;;;;;;4842837;29;20216;-86
2024/03/27 08:33:51;;;;;;;12.82;9.13;;;9.20;99.90;;;;;;4841979;29;20200;-88
2024/03/27 08:36:19;;;;;;;13.23;9.65;;;9.30;99.90;;;;;;4843629;29;20282;-89
2024/03/27 08:38:44;;;;;;;13.00;9.30;;;9.30;99.90;;;;;;4844638;29;20182;-88
2024/03/27 08:41:11;;;;;;;10.50;8.75;;;9.40;99.90;;;;;;4843283;29;20236;-88
2024/03/27 08:43:37;;;;;;;14.45;9.27;;;9.40;99.90;;;;;;4844959;29;20215;-88
2024/03/27 08:46:04;;;;;;;11.73;7.97;;;9.50;99.90;;;;;;4846400;29;20279;-88
2024/03/27 08:48:30;;;;;;;12.82;8.77;;;9.40;99.90;;;;;;4846178;29;20207;-88
2024/03/27 08:51:01;;;;;;;14.02;9.70;;;9.40;99.90;;;;;;4846273;29;20625;-88
2024/03/27 08:53:26;;;;;;;11.60;8.70;;;9.30;99.90;;;;;;4846508;29;20176;-88
2024/03/27 08:55:52;;;;;;;13.52;8.70;;;9.30;99.90;;;;;;4862840;29;20267;-89
2024/03/27 08:58:18;;;;;;;11.75;8.30;;;9.40;99.90;;;;;;4846456;29;21062;-88
2024/03/27 09:00:44;;;;;;;12.27;9.13;;;9.60;99.90;;;;;;4846260;29;20244;-88
2024/03/27 09:03:09;;;;;;;10.82;8.18;;;9.60;99.90;;;;;;4846153;29;20184;-88
2024/03/27 09:05:36;;;;;;;11.60;7.63;;;9.80;99.90;;;;;;4846306;29;20192;-88
2024/03/27 09:08:01;;;;;;;12.27;7.72;;;9.90;99.90;;;;;;4846239;29;20196;-88
2024/03/27 09:10:28;;;;;;;12.80;7.75;;;10.10;99.90;;;;;;4846359;29;20568;-88
2024/03/27 09:12:54;;;;;;;9.88;7.28;;;10.30;99.90;;;;;;4846460;29;20644;-88
2024/03/27 09:15:21;;;;;;;13.35;8.32;;;10.40;99.90;;;;;;4846466;29;20620;-87
2024/03/27 09:17:46;;;;;;;12.00;7.90;;;10.60;99.90;;;;;;4845731;29;20241;-87
2024/03/27 09:20:27;;;;;;;9.50;7.18;;;10.90;99.90;;;;;;4846145;29;20185;-88
2024/03/27 09:22:53;;;;;;;9.77;7.15;;;11.00;99.90;;;;;;4862795;29;20301;-88
2024/03/27 09:25:18;;;;;;;10.48;7.25;;;11.20;99.90;;;;;;4846169;29;20237;-88
2024/03/27 09:27:44;;;;;;;12.27;7.40;;;11.40;99.90;;;;;;4846030;29;20189;-88
2024/03/27 09:30:11;;;;;;;8.90;7.07;;;11.50;99.90;;;;;;4845919;29;20233;-88
2024/03/27 09:32:37;;;;;;;10.20;6.78;;;11.60;99.90;;;;;;4845921;29;20189;-88
2024/03/27 09:35:04;;;;;;;11.57;7.45;;;11.80;99.90;;;;;;4848435;29;20187;-89
2024/03/27 09:37:30;;;;;;;11.13;7.22;;;11.90;99.90;;;;;;4849365;29;20223;-87
2024/03/27 09:39:55;;;;;;;9.35;6.88;;;12.10;99.90;;;;;;4849311;29;20212;-88
2024/03/27 09:42:30;;;;;;;8.98;6.72;;;12.20;99.90;;;;;;4848846;29;20660;-89
2024/03/27 09:44:56;;;;;;;9.35;6.97;;;12.30;99.90;;;;;;4849269;29;20559;-88
2024/03/27 09:47:23;;;;;;;11.40;6.53;;;12.40;99.90;;;;;;4865468;29;20184;-89
2024/03/27 09:49:49;;;;;;;9.32;6.43;;;12.50;99.90;;;;;;4849121;29;20219;-86
2024/03/27 09:52:18;;;;;;;10.07;6.38;;;12.60;99.90;;;;;;4849153;29;20184;-86
2024/03/27 09:54:44;;;;;;;11.95;6.82;;;12.70;99.90;;;;;;4865483;29;20242;-86
2024/03/27 09:57:10;;;;;;;9.10;6.65;;;12.80;99.90;;;;;;4848682;29;20192;-84
2024/03/27 09:59:37;;;;;;;10.05;7.22;;;12.80;99.90;;;;;;4865243;29;20173;-86
2024/03/27 10:02:04;;;;;;;9.77;7.07;;;12.80;99.90;;;;;;4848566;29;20232;-86
2024/03/27 10:04:30;;;;;;;9.30;7.28;;;12.80;99.90;;;;;;4865308;29;20581;-86
2024/03/27 10:06:56;;;;;;;10.25;7.07;;;12.80;99.90;;;;;;4848669;29;20185;-85
2024/03/27 10:09:22;;;;;;;10.68;7.18;;;12.80;99.90;;;;;;4848688;29;20192;-87
2024/03/27 10:11:49;;;;;;;10.63;7.18;;;12.80;99.90;;;;;;4848560;29;20204;-86
2024/03/27 10:14:15;;;;;;;13.40;7.57;;;12.90;99.90;;;;;;4848437;29;20176;-87
2024/03/27 10:16:41;;;;;;;11.07;6.88;;;13.00;99.90;;;;;;4848433;29;20232;-86
2024/03/27 10:19:07;;;;;;;13.80;6.90;;;13.20;99.90;;;;;;4848504;29;20176;-85
2024/03/27 10:21:35;;;;;;;10.65;6.68;;;13.30;99.90;;;;;;4848531;29;20205;-87
2024/03/27 10:24:03;;;;;;;7.35;6.35;;;13.30;99.90;;;;;;4864713;29;20215;-87
2024/03/27 10:26:32;;;;;;;10.57;6.40;;;13.40;99.90;;;;;;4848019;29;20579;-86
2024/03/27 10:28:58;;;;;;;7.75;5.53;;;13.50;99.90;;;;;;4848189;29;20188;-86
2024/03/27 10:31:27;;;;;;;6.70;5.30;;;13.60;99.90;;;;;;4848234;29;20185;-88
2024/03/27 10:33:53;;;;;;;10.23;5.30;;;13.80;99.90;;;;;;4847758;29;20276;-88
2024/03/27 10:36:26;;;;;;;8.80;5.60;;;13.90;99.90;;;;;;4847916;29;20183;-85
2024/03/27 10:38:56;;;;;;;7.10;5.78;;;14.00;99.90;;;;;;4848134;29;20201;-86
2024/03/27 10:41:27;;;;;;;7.13;5.55;;;14.00;99.90;;;;;;4848095;29;20243;-85
2024/03/27 10:43:56;;;;;;;7.88;6.00;;;13.90;99.90;;;;;;4864621;29;20169;-86
2024/03/27 10:46:27;;;;;;;11.65;5.95;;;13.80;99.90;;;;;;4847368;29;20181;-85
2024/03/27 10:48:53;;;;;;;10.30;6.50;;;13.80;99.90;;;;;;4864256;29;20165;-87
2024/03/27 10:51:24;;;;;;;8.50;5.68;;;14.10;99.90;;;;;;4848200;29;20642;-88
2024/03/27 10:53:50;;;;;;;7.18;5.32;;;14.20;99.90;;;;;;4848006;29;20605;-87
2024/03/27 10:56:17;;;;;;;6.25;5.10;;;14.50;99.90;;;;;;4847756;29;20275;-87
2024/03/27 10:58:43;;;;;;;6.45;5.50;;;14.70;99.90;;;;;;4847803;29;20221;-89
2024/03/27 11:01:10;;;;;;;5.80;4.30;;;14.80;99.90;;;;;;4847995;29;20212;-88
2024/03/27 11:03:42;;;;;;;5.35;4.22;;;14.80;96.50;;;;;;4847852;29;20188;-88
2024/03/27 11:06:13;;;;;;;5.63;3.63;;;14.70;96.90;;;;;;4864344;29;20172;-88
2024/03/27 11:08:42;;;;;;;5.50;3.97;;;14.70;97.20;;;;;;4847561;29;20184;-87
2024/03/27 11:11:22;;;;;;;8.30;5.45;;;14.80;98.50;;;;;;4847824;29;20240;-88
2024/03/27 11:13:48;;;;;;;8.27;6.50;;;15.00;99.90;;;;;;4847730;29;20328;-89
2024/03/27 11:16:14;;;;;;;9.10;5.88;;;15.20;99.90;;;;;;4847359;29;20259;-90
2024/03/27 11:18:45;;;;;;;8.73;6.60;;;15.40;99.90;;;;;;4847448;29;20204;-88
2024/03/27 11:21:14;;;;;;;9.93;6.22;;;15.50;99.90;;;;;;4847442;29;20328;-83
2024/03/27 11:23:41;;;;;;;8.63;6.30;;;15.80;99.90;;;;;;4847166;29;20180;-87
2024/03/27 11:26:07;;;;;;;8.07;6.05;;;16.00;99.90;;;;;;4847325;29;20196;-88
2024/03/27 11:28:33;;;;;;;14.68;6.80;;;16.10;99.90;;;;;;4847316;29;20185;-89
2024/03/27 11:30:59;;;;;;;10.38;6.85;;;16.30;99.90;;;;;;4863722;29;20180;-88
2024/03/27 11:33:27;;;;;;;9.00;7.20;;;16.30;99.90;;;;;;4846937;29;20216;-90
2024/03/27 11:35:53;;;;;;;9.35;6.68;;;16.30;99.90;;;;;;4847564;29;20676;-87
2024/03/27 11:38:21;;;;;;;9.32;6.68;;;16.40;99.90;;;;;;4862843;29;20185;-87
2024/03/27 11:40:53;;;;;;;9.73;6.72;;;16.40;99.90;;;;;;4853653;29;20275;-85
2024/03/27 11:43:21;;;;;;;10.77;6.93;;;16.50;99.90;;;;;;4862412;29;20180;-85
2024/03/27 11:45:49;;;;;;;10.38;7.20;;;16.60;99.90;;;;;;4862508;29;20205;-86
2024/03/27 11:48:15;;;;;;;8.93;6.93;;;16.60;99.90;;;;;;4862256;29;20191;-85
2024/03/27 11:50:41;;;;;;;12.30;6.80;;;16.60;99.90;;;;;;4862316;29;20181;-86
2024/03/27 11:53:26;;;;;;;12.95;6.63;;;16.70;99.90;;;;;;4862386;29;20188;-85
2024/03/27 11:55:55;;;;;;;8.32;6.30;;;16.80;99.90;;;;;;4862136;29;20168;-84
2024/03/27 11:58:21;;;;;;;9.98;6.45;;;16.90;99.90;;;;;;4862088;29;20216;-85
2024/03/27 12:00:49;;;;;;;9.40;6.20;;;16.70;99.90;;;;;;4862161;29;20215;-86
2024/03/27 12:03:15;;;;;;;9.73;6.22;;;16.70;99.90;;;;;;4863186;29;20180;-85
2024/03/27 12:05:42;;;;;;;12.38;6.55;;;16.80;99.80;;;;;;4862211;29;20229;-85
2024/03/27 12:08:07;;;;;;;9.02;5.97;;;16.90;99.20;;;;;;4863374;29;20613;-87
2024/03/27 12:10:33;;;;;;;7.57;5.55;;;16.90;99.80;;;;;;4862452;29;20185;-85
2024/03/27 12:13:05;;;;;;;7.80;5.93;;;16.90;98.90;;;;;;4847354;29;20216;-86
2024/03/27 12:15:31;;;;;;;8.88;5.40;;;17.00;99.60;;;;;;4846249;29;20212;-84
2024/03/27 12:18:00;;;;;;;8.68;5.07;;;16.90;99.90;;;;;;4846492;29;20219;-86
2024/03/27 12:20:33;;;;;;;8.82;5.45;;;16.90;99.50;;;;;;4846652;29;20188;-86
2024/03/27 12:23:08;;;;;;;8.32;5.60;;;16.70;99.20;;;;;;4846404;29;20230;-86
2024/03/27 12:25:34;;;;;;;7.47;5.45;;;16.70;99.90;;;;;;4846524;29;20291;-86
2024/03/27 12:28:04;;;;;;;8.48;5.22;;;16.80;99.40;;;;;;4846494;29;20189;-86
2024/03/27 12:30:30;;;;;;;8.45;5.40;;;16.90;99.50;;;;;;4863039;29;20177;-87
2024/03/27 12:33:00;;;;;;;10.25;5.18;;;17.20;99.80;;;;;;4846327;29;20183;-86
2024/03/27 12:35:27;;;;;;;7.35;5.28;;;17.40;98.70;;;;;;4846794;29;20196;-87
2024/03/27 12:37:54;;;;;;;9.82;5.03;;;17.60;99.50;;;;;;4846581;29;20181;-86
2024/03/27 12:40:20;;;;;;;12.85;5.18;;;17.50;98.10;;;;;;4846572;29;20280;-86
2024/03/27 12:42:47;;;;;;;7.55;4.78;;;17.50;98.00;;;;;;4846619;29;20315;-87
2024/03/27 12:45:12;;;;;;;6.75;4.68;;;17.70;98.00;;;;;;4846531;29;20203;-87
2024/03/27 12:47:38;;;;;;;7.22;4.72;;;17.90;99.10;;;;;;4846204;29;20223;-86